sensor_id;sensor_type;location;lat;lon;timestamp;temperature;humidity
45643;DHT22;31358;46.008;11.144;2022-09-27T00:01:14;14.20;99.90
45643;DHT22;31358;46.008;11.144;2022-09-27T00:03:40;14.10;99.90
45643;DHT22;31358;46.008;11.144;2022-09-27T00:06:19;14.20;99.90
45643;DHT22;31358;46.008;11.144;2022-09-27T00:08:46;14.30;99.90
45643;DHT22;31358;46.008;11.144;2022-09-27T00:11:31;14.30;99.90
45643;DHT22;31358;46.008;11.144;2022-09-27T00:13:59;14.30;99.90
45643;DHT22;31358;46.008;11.144;2022-09-27T00:16:26;14.20;99.90
45643;DHT22;31358;46.008;11.144;2022-09-27T00:18:52;14.00;99.90
45643;DHT22;31358;46.008;11.144;2022-09-27T00:21:22;14.00;99.90
45643;DHT22;31358;46.008;11.144;2022-09-27T00:23:47;14.10;99.90
45643;DHT22;31358;46.008;11.144;2022-09-27T00:26:13;14.20;99.90
45643;DHT22;31358;46.008;11.144;2022-09-27T00:28:39;14.30;99.90
45643;DHT22;31358;46.008;11.144;2022-09-27T00:31:18;14.20;99.90
45643;DHT22;31358;46.008;11.144;2022-09-27T00:33:48;14.30;99.90
45643;DHT22;31358;46.008;11.144;2022-09-27T00:36:14;14.30;99.90
45643;DHT22;31358;46.008;11.144;2022-09-27T00:38:41;14.30;99.90
45643;DHT22;31358;46.008;11.144;2022-09-27T00:41:13;14.30;99.90
45643;DHT22;31358;46.008;11.144;2022-09-27T00:44:02;14.30;99.90
45643;DHT22;31358;46.008;11.144;2022-09-27T00:49:22;14.30;99.90
45643;DHT22;31358;46.008;11.144;2022-09-27T00:51:55;14.30;99.90
45643;DHT22;31358;46.008;11.144;2022-09-27T00:54:23;14.30;99.90
45643;DHT22;31358;46.008;11.144;2022-09-27T00:56:51;14.30;99.90
45643;DHT22;31358;46.008;11.144;2022-09-27T00:59:37;14.30;99.90
45643;DHT22;31358;46.008;11.144;2022-09-27T01:02:05;14.40;99.90
45643;DHT22;31358;46.008;11.144;2022-09-27T01:04:32;14.40;99.90
45643;DHT22;31358;46.008;11.144;2022-09-27T01:06:59;14.30;99.90
45643;DHT22;31358;46.008;11.144;2022-09-27T01:09:25;14.20;99.90
45643;DHT22;31358;46.008;11.144;2022-09-27T01:12:10;14.20;99.90
45643;DHT22;31358;46.008;11.144;2022-09-27T01:20:30;14.10;99.90
45643;DHT22;31358;46.008;11.144;2022-09-27T01:34:42;14.10;99.90
45643;DHT22;31358;46.008;11.144;2022-09-27T01:39:54;14.20;99.90
45643;DHT22;31358;46.008;11.144;2022-09-27T01:48:24;14.00;99.90
45643;DHT22;31358;46.008;11.144;2022-09-27T01:50:44;14.00;99.90
45643;DHT22;31358;46.008;11.144;2022-09-27T01:53:20;14.10;99.90
45643;DHT22;31358;46.008;11.144;2022-09-27T01:55:48;13.90;99.90
45643;DHT22;31358;46.008;11.144;2022-09-27T02:00:46;13.70;99.90
45643;DHT22;31358;46.008;11.144;2022-09-27T02:03:57;13.80;99.90
45643;DHT22;31358;46.008;11.144;2022-09-27T02:06:11;13.80;99.90
45643;DHT22;31358;46.008;11.144;2022-09-27T02:11:10;13.60;99.90
45643;DHT22;31358;46.008;11.144;2022-09-27T02:24:32;13.70;99.90
45643;DHT22;31358;46.008;11.144;2022-09-27T02:27:27;13.70;99.90
45643;DHT22;31358;46.008;11.144;2022-09-27T02:30:13;13.70;99.90
45643;DHT22;31358;46.008;11.144;2022-09-27T02:32:39;13.70;99.90
45643;DHT22;31358;46.008;11.144;2022-09-27T02:35:27;13.60;99.90
45643;DHT22;31358;46.008;11.144;2022-09-27T02:37:54;13.60;99.90
45643;DHT22;31358;46.008;11.144;2022-09-27T02:40:21;13.70;99.90
45643;DHT22;31358;46.008;11.144;2022-09-27T02:42:47;13.70;99.90
45643;DHT22;31358;46.008;11.144;2022-09-27T02:45:15;13.80;99.90
45643;DHT22;31358;46.008;11.144;2022-09-27T02:54:15;13.90;99.90
45643;DHT22;31358;46.008;11.144;2022-09-27T03:01:38;13.70;99.90
45643;DHT22;31358;46.008;11.144;2022-09-27T03:04:45;13.70;99.90
45643;DHT22;31358;46.008;11.144;2022-09-27T03:07:13;13.70;99.90
45643;DHT22;31358;46.008;11.144;2022-09-27T03:09:42;13.70;99.90
45643;DHT22;31358;46.008;11.144;2022-09-27T03:12:09;13.70;99.90
45643;DHT22;31358;46.008;11.144;2022-09-27T03:14:34;13.70;99.90
45643;DHT22;31358;46.008;11.144;2022-09-27T03:17:01;13.60;99.90
45643;DHT22;31358;46.008;11.144;2022-09-27T03:19:27;13.40;99.90
45643;DHT22;31358;46.008;11.144;2022-09-27T03:21:52;13.30;99.90
45643;DHT22;31358;46.008;11.144;2022-09-27T03:24:18;13.10;99.90
45643;DHT22;31358;46.008;11.144;2022-09-27T03:26:44;13.00;99.90
45643;DHT22;31358;46.008;11.144;2022-09-27T03:29:09;13.00;99.90
45643;DHT22;31358;46.008;11.144;2022-09-27T03:31:35;13.00;99.90
45643;DHT22;31358;46.008;11.144;2022-09-27T03:34:01;12.90;99.90
45643;DHT22;31358;46.008;11.144;2022-09-27T03:36:26;12.80;99.90
45643;DHT22;31358;46.008;11.144;2022-09-27T03:38:53;12.80;99.90
45643;DHT22;31358;46.008;11.144;2022-09-27T03:41:19;12.80;99.90
45643;DHT22;31358;46.008;11.144;2022-09-27T03:43:44;12.60;99.90
45643;DHT22;31358;46.008;11.144;2022-09-27T03:46:10;12.80;99.90
45643;DHT22;31358;46.008;11.144;2022-09-27T03:48:36;13.00;99.90
45643;DHT22;31358;46.008;11.144;2022-09-27T03:51:02;13.10;99.90
45643;DHT22;31358;46.008;11.144;2022-09-27T03:53:29;13.20;99.90
45643;DHT22;31358;46.008;11.144;2022-09-27T03:55:54;13.00;99.90
45643;DHT22;31358;46.008;11.144;2022-09-27T03:58:20;13.00;99.90
45643;DHT22;31358;46.008;11.144;2022-09-27T04:00:46;12.80;99.90
45643;DHT22;31358;46.008;11.144;2022-09-27T04:03:12;12.70;99.90
45643;DHT22;31358;46.008;11.144;2022-09-27T04:05:38;12.70;99.90
45643;DHT22;31358;46.008;11.144;2022-09-27T04:08:04;12.60;99.90
45643;DHT22;31358;46.008;11.144;2022-09-27T04:10:30;12.70;99.90
45643;DHT22;31358;46.008;11.144;2022-09-27T04:12:56;12.80;99.90
45643;DHT22;31358;46.008;11.144;2022-09-27T04:15:22;12.90;99.90
45643;DHT22;31358;46.008;11.144;2022-09-27T04:17:48;12.90;99.90
45643;DHT22;31358;46.008;11.144;2022-09-27T04:20:14;13.10;99.90
45643;DHT22;31358;46.008;11.144;2022-09-27T04:22:40;13.10;99.90
45643;DHT22;31358;46.008;11.144;2022-09-27T04:25:07;13.20;99.90
45643;DHT22;31358;46.008;11.144;2022-09-27T04:27:34;13.20;99.90
45643;DHT22;31358;46.008;11.144;2022-09-27T04:29:59;13.10;99.90
45643;DHT22;31358;46.008;11.144;2022-09-27T04:32:25;13.00;99.90
45643;DHT22;31358;46.008;11.144;2022-09-27T04:34:51;13.00;99.90
45643;DHT22;31358;46.008;11.144;2022-09-27T04:37:35;12.90;99.90
45643;DHT22;31358;46.008;11.144;2022-09-27T04:40:02;12.90;99.90
45643;DHT22;31358;46.008;11.144;2022-09-27T04:42:28;13.00;99.90
45643;DHT22;31358;46.008;11.144;2022-09-27T04:44:54;13.10;99.90
45643;DHT22;31358;46.008;11.144;2022-09-27T04:47:20;13.10;99.90
45643;DHT22;31358;46.008;11.144;2022-09-27T04:49:46;13.00;99.90
45643;DHT22;31358;46.008;11.144;2022-09-27T04:52:12;13.00;99.90
45643;DHT22;31358;46.008;11.144;2022-09-27T04:54:40;13.10;99.90
45643;DHT22;31358;46.008;11.144;2022-09-27T04:57:05;13.10;99.90
45643;DHT22;31358;46.008;11.144;2022-09-27T04:59:31;13.10;99.90
45643;DHT22;31358;46.008;11.144;2022-09-27T05:01:57;13.20;99.90
45643;DHT22;31358;46.008;11.144;2022-09-27T05:04:25;13.30;99.90
45643;DHT22;31358;46.008;11.144;2022-09-27T05:06:51;13.30;99.90
45643;DHT22;31358;46.008;11.144;2022-09-27T05:09:17;13.30;99.90
45643;DHT22;31358;46.008;11.144;2022-09-27T05:11:42;13.20;99.90
45643;DHT22;31358;46.008;11.144;2022-09-27T05:14:08;13.20;99.90
45643;DHT22;31358;46.008;11.144;2022-09-27T05:16:34;13.30;99.90
45643;DHT22;31358;46.008;11.144;2022-09-27T05:19:02;13.30;99.90
45643;DHT22;31358;46.008;11.144;2022-09-27T05:21:27;13.20;99.90
45643;DHT22;31358;46.008;11.144;2022-09-27T05:23:53;13.10;99.90
45643;DHT22;31358;46.008;11.144;2022-09-27T05:26:19;13.20;99.90
45643;DHT22;31358;46.008;11.144;2022-09-27T05:28:45;13.30;99.90
45643;DHT22;31358;46.008;11.144;2022-09-27T05:31:12;13.30;99.90
45643;DHT22;31358;46.008;11.144;2022-09-27T05:33:39;13.10;99.90
45643;DHT22;31358;46.008;11.144;2022-09-27T05:36:05;13.10;99.90
45643;DHT22;31358;46.008;11.144;2022-09-27T05:38:31;13.10;99.90
45643;DHT22;31358;46.008;11.144;2022-09-27T05:40:57;13.00;99.90
45643;DHT22;31358;46.008;11.144;2022-09-27T05:43:23;13.00;99.90
45643;DHT22;31358;46.008;11.144;2022-09-27T05:45:49;13.00;99.90
45643;DHT22;31358;46.008;11.144;2022-09-27T05:48:17;13.00;99.90
45643;DHT22;31358;46.008;11.144;2022-09-27T05:50:42;13.10;99.90
45643;DHT22;31358;46.008;11.144;2022-09-27T05:53:09;13.10;99.90
45643;DHT22;31358;46.008;11.144;2022-09-27T05:55:35;13.10;99.90
45643;DHT22;31358;46.008;11.144;2022-09-27T05:58:03;13.10;99.90
45643;DHT22;31358;46.008;11.144;2022-09-27T06:00:29;13.00;99.90
45643;DHT22;31358;46.008;11.144;2022-09-27T06:02:57;13.10;99.90
45643;DHT22;31358;46.008;11.144;2022-09-27T06:05:24;13.20;99.90
45643;DHT22;31358;46.008;11.144;2022-09-27T06:07:51;13.10;99.90
45643;DHT22;31358;46.008;11.144;2022-09-27T06:10:18;13.20;99.90
45643;DHT22;31358;46.008;11.144;2022-09-27T06:12:44;13.20;99.90
45643;DHT22;31358;46.008;11.144;2022-09-27T06:15:10;13.30;99.90
45643;DHT22;31358;46.008;11.144;2022-09-27T06:17:37;13.30;99.90
45643;DHT22;31358;46.008;11.144;2022-09-27T06:20:03;13.30;99.90
45643;DHT22;31358;46.008;11.144;2022-09-27T06:22:29;13.40;99.90
45643;DHT22;31358;46.008;11.144;2022-09-27T06:24:55;13.40;99.90
45643;DHT22;31358;46.008;11.144;2022-09-27T06:27:20;13.40;99.90
45643;DHT22;31358;46.008;11.144;2022-09-27T06:29:46;13.40;99.90
45643;DHT22;31358;46.008;11.144;2022-09-27T06:32:11;13.60;99.90
45643;DHT22;31358;46.008;11.144;2022-09-27T06:34:37;13.60;99.90
45643;DHT22;31358;46.008;11.144;2022-09-27T06:37:04;13.50;99.90
45643;DHT22;31358;46.008;11.144;2022-09-27T06:39:29;13.40;99.90
45643;DHT22;31358;46.008;11.144;2022-09-27T06:41:57;13.40;99.90
45643;DHT22;31358;46.008;11.144;2022-09-27T06:44:23;13.30;99.90
45643;DHT22;31358;46.008;11.144;2022-09-27T06:46:51;13.40;99.90
45643;DHT22;31358;46.008;11.144;2022-09-27T06:49:18;13.40;99.90
45643;DHT22;31358;46.008;11.144;2022-09-27T06:51:44;13.40;99.90
45643;DHT22;31358;46.008;11.144;2022-09-27T06:54:10;13.50;99.90
45643;DHT22;31358;46.008;11.144;2022-09-27T06:56:36;13.50;99.90
45643;DHT22;31358;46.008;11.144;2022-09-27T06:59:02;13.50;99.90
45643;DHT22;31358;46.008;11.144;2022-09-27T07:01:46;13.60;99.90
45643;DHT22;31358;46.008;11.144;2022-09-27T07:04:12;13.70;99.90
45643;DHT22;31358;46.008;11.144;2022-09-27T07:06:37;13.70;99.90
45643;DHT22;31358;46.008;11.144;2022-09-27T07:09:03;13.70;99.90
45643;DHT22;31358;46.008;11.144;2022-09-27T07:11:33;13.80;99.90
45643;DHT22;31358;46.008;11.144;2022-09-27T07:14:01;13.70;99.90
45643;DHT22;31358;46.008;11.144;2022-09-27T07:16:28;13.80;99.90
45643;DHT22;31358;46.008;11.144;2022-09-27T07:18:53;13.90;99.90
45643;DHT22;31358;46.008;11.144;2022-09-27T07:21:19;14.10;99.90
45643;DHT22;31358;46.008;11.144;2022-09-27T07:23:45;14.20;99.90
45643;DHT22;31358;46.008;11.144;2022-09-27T07:26:11;14.30;99.90
45643;DHT22;31358;46.008;11.144;2022-09-27T07:28:37;14.50;99.90
45643;DHT22;31358;46.008;11.144;2022-09-27T07:31:08;14.60;99.90
45643;DHT22;31358;46.008;11.144;2022-09-27T07:33:34;14.70;99.90
45643;DHT22;31358;46.008;11.144;2022-09-27T07:36:05;14.80;99.90
45643;DHT22;31358;46.008;11.144;2022-09-27T07:38:31;14.80;99.90
45643;DHT22;31358;46.008;11.144;2022-09-27T07:40:57;14.80;99.90
45643;DHT22;31358;46.008;11.144;2022-09-27T07:43:23;14.80;99.90
45643;DHT22;31358;46.008;11.144;2022-09-27T07:45:49;14.80;99.90
45643;DHT22;31358;46.008;11.144;2022-09-27T07:48:15;14.80;99.90
45643;DHT22;31358;46.008;11.144;2022-09-27T07:50:41;14.90;99.90
45643;DHT22;31358;46.008;11.144;2022-09-27T07:53:07;15.00;99.90
45643;DHT22;31358;46.008;11.144;2022-09-27T07:55:37;15.10;99.90
45643;DHT22;31358;46.008;11.144;2022-09-27T07:58:04;15.20;99.90
45643;DHT22;31358;46.008;11.144;2022-09-27T08:00:30;15.10;99.90
45643;DHT22;31358;46.008;11.144;2022-09-27T08:02:56;15.00;99.90
45643;DHT22;31358;46.008;11.144;2022-09-27T08:05:21;15.10;99.90
45643;DHT22;31358;46.008;11.144;2022-09-27T08:07:52;15.10;99.90
45643;DHT22;31358;46.008;11.144;2022-09-27T08:10:18;15.20;99.90
45643;DHT22;31358;46.008;11.144;2022-09-27T08:12:44;15.40;99.90
45643;DHT22;31358;46.008;11.144;2022-09-27T08:15:10;15.50;99.90
45643;DHT22;31358;46.008;11.144;2022-09-27T08:17:35;15.50;99.90
45643;DHT22;31358;46.008;11.144;2022-09-27T08:20:01;15.50;99.90
45643;DHT22;31358;46.008;11.144;2022-09-27T08:22:30;15.30;99.90
45643;DHT22;31358;46.008;11.144;2022-09-27T08:24:56;15.30;99.90
45643;DHT22;31358;46.008;11.144;2022-09-27T08:27:22;15.40;99.90
45643;DHT22;31358;46.008;11.144;2022-09-27T08:29:47;15.50;99.90
45643;DHT22;31358;46.008;11.144;2022-09-27T08:32:15;15.60;99.90
45643;DHT22;31358;46.008;11.144;2022-09-27T08:34:41;15.40;99.90
45643;DHT22;31358;46.008;11.144;2022-09-27T08:37:06;15.50;99.90
45643;DHT22;31358;46.008;11.144;2022-09-27T08:39:32;15.50;99.90
45643;DHT22;31358;46.008;11.144;2022-09-27T08:47:10;15.30;99.90
45643;DHT22;31358;46.008;11.144;2022-09-27T08:49:40;15.30;99.90
45643;DHT22;31358;46.008;11.144;2022-09-27T08:52:31;15.30;99.90
45643;DHT22;31358;46.008;11.144;2022-09-27T08:55:03;15.40;99.90
45643;DHT22;31358;46.008;11.144;2022-09-27T08:57:30;15.70;99.90
45643;DHT22;31358;46.008;11.144;2022-09-27T09:00:06;15.80;99.90
45643;DHT22;31358;46.008;11.144;2022-09-27T09:02:34;15.80;99.90
45643;DHT22;31358;46.008;11.144;2022-09-27T09:05:13;15.80;99.90
45643;DHT22;31358;46.008;11.144;2022-09-27T09:19:27;15.70;99.90
45643;DHT22;31358;46.008;11.144;2022-09-27T09:28:23;16.30;99.90
45643;DHT22;31358;46.008;11.144;2022-09-27T09:33:48;16.30;99.90
45643;DHT22;31358;46.008;11.144;2022-09-27T09:36:36;16.60;99.90
45643;DHT22;31358;46.008;11.144;2022-09-27T09:39:23;16.80;99.90
45643;DHT22;31358;46.008;11.144;2022-09-27T09:50:02;16.90;99.90
45643;DHT22;31358;46.008;11.144;2022-09-27T09:52:41;17.00;99.90
45643;DHT22;31358;46.008;11.144;2022-09-27T09:55:21;16.90;99.90
45643;DHT22;31358;46.008;11.144;2022-09-27T10:00:39;17.10;99.90
45643;DHT22;31358;46.008;11.144;2022-09-27T10:03:06;17.20;99.90
45643;DHT22;31358;46.008;11.144;2022-09-27T10:05:31;17.10;99.90
45643;DHT22;31358;46.008;11.144;2022-09-27T10:08:01;17.30;99.90
45643;DHT22;31358;46.008;11.144;2022-09-27T10:10:28;17.30;99.90
45643;DHT22;31358;46.008;11.144;2022-09-27T10:12:56;17.30;99.90
45643;DHT22;31358;46.008;11.144;2022-09-27T10:15:25;17.50;99.90
45643;DHT22;31358;46.008;11.144;2022-09-27T10:17:55;17.50;99.90
45643;DHT22;31358;46.008;11.144;2022-09-27T10:20:29;17.70;99.90
45643;DHT22;31358;46.008;11.144;2022-09-27T10:23:12;17.70;99.90
45643;DHT22;31358;46.008;11.144;2022-09-27T10:25:51;17.50;99.90
45643;DHT22;31358;46.008;11.144;2022-09-27T10:29:01;18.00;99.90
45643;DHT22;31358;46.008;11.144;2022-09-27T10:31:20;18.20;99.90
45643;DHT22;31358;46.008;11.144;2022-09-27T10:33:59;18.40;99.90
45643;DHT22;31358;46.008;11.144;2022-09-27T10:36:32;18.30;99.90
45643;DHT22;31358;46.008;11.144;2022-09-27T10:39:01;18.40;99.90
45643;DHT22;31358;46.008;11.144;2022-09-27T10:41:34;18.40;99.90
45643;DHT22;31358;46.008;11.144;2022-09-27T10:46:44;18.50;99.90
45643;DHT22;31358;46.008;11.144;2022-09-27T10:51:51;17.70;99.90
45643;DHT22;31358;46.008;11.144;2022-09-27T10:59:40;17.40;99.90
45643;DHT22;31358;46.008;11.144;2022-09-27T11:02:31;17.80;99.90
45643;DHT22;31358;46.008;11.144;2022-09-27T11:07:28;18.40;99.90
45643;DHT22;31358;46.008;11.144;2022-09-27T11:09:56;18.80;99.90
45643;DHT22;31358;46.008;11.144;2022-09-27T11:12:28;18.80;99.60
45643;DHT22;31358;46.008;11.144;2022-09-27T11:15:01;19.00;99.90
45643;DHT22;31358;46.008;11.144;2022-09-27T11:17:30;19.10;98.70
45643;DHT22;31358;46.008;11.144;2022-09-27T11:40:03;18.00;98.30
45643;DHT22;31358;46.008;11.144;2022-09-27T11:42:47;18.10;99.10
45643;DHT22;31358;46.008;11.144;2022-09-27T11:48:04;18.50;98.90
45643;DHT22;31358;46.008;11.144;2022-09-27T11:53:18;18.60;97.60
45643;DHT22;31358;46.008;11.144;2022-09-27T11:56:23;18.70;98.10
45643;DHT22;31358;46.008;11.144;2022-09-27T12:07:46;19.30;97.30
45643;DHT22;31358;46.008;11.144;2022-09-27T12:10:16;18.70;97.60
45643;DHT22;31358;46.008;11.144;2022-09-27T12:12:45;18.70;98.00
45643;DHT22;31358;46.008;11.144;2022-09-27T12:15:24;18.70;97.40
45643;DHT22;31358;46.008;11.144;2022-09-27T12:18:43;19.00;97.80
45643;DHT22;31358;46.008;11.144;2022-09-27T12:20:44;19.40;97.70
45643;DHT22;31358;46.008;11.144;2022-09-27T12:28:50;18.40;97.90
45643;DHT22;31358;46.008;11.144;2022-09-27T12:31:33;18.40;98.20
45643;DHT22;31358;46.008;11.144;2022-09-27T12:34:14;18.40;97.80
45643;DHT22;31358;46.008;11.144;2022-09-27T12:36:46;18.40;97.40
45643;DHT22;31358;46.008;11.144;2022-09-27T12:41:52;18.60;97.60
45643;DHT22;31358;46.008;11.144;2022-09-27T12:44:26;18.70;96.60
45643;DHT22;31358;46.008;11.144;2022-09-27T12:52:04;19.20;97.10
45643;DHT22;31358;46.008;11.144;2022-09-27T13:12:22;19.70;96.90
45643;DHT22;31358;46.008;11.144;2022-09-27T13:22:53;18.60;97.10
45643;DHT22;31358;46.008;11.144;2022-09-27T13:30:54;18.60;98.80
45643;DHT22;31358;46.008;11.144;2022-09-27T13:33:28;18.60;99.20
45643;DHT22;31358;46.008;11.144;2022-09-27T13:38:31;18.70;98.20
45643;DHT22;31358;46.008;11.144;2022-09-27T13:41:17;18.80;98.40
45643;DHT22;31358;46.008;11.144;2022-09-27T13:46:59;18.80;97.40
45643;DHT22;31358;46.008;11.144;2022-09-27T13:49:35;18.90;97.80
45643;DHT22;31358;46.008;11.144;2022-09-27T13:54:57;19.30;97.90
45643;DHT22;31358;46.008;11.144;2022-09-27T13:57:58;19.20;97.00
45643;DHT22;31358;46.008;11.144;2022-09-27T14:00:29;19.20;97.50
45643;DHT22;31358;46.008;11.144;2022-09-27T14:05:49;19.00;96.80
45643;DHT22;31358;46.008;11.144;2022-09-27T14:10:48;18.90;97.30
45643;DHT22;31358;46.008;11.144;2022-09-27T14:13:18;18.90;97.80
45643;DHT22;31358;46.008;11.144;2022-09-27T14:15:45;18.80;97.50
45643;DHT22;31358;46.008;11.144;2022-09-27T14:18:11;18.70;97.90
45643;DHT22;31358;46.008;11.144;2022-09-27T14:20:44;18.60;97.50
45643;DHT22;31358;46.008;11.144;2022-09-27T14:23:21;18.50;98.00
45643;DHT22;31358;46.008;11.144;2022-09-27T14:25:50;18.50;97.80
45643;DHT22;31358;46.008;11.144;2022-09-27T14:28:40;18.50;98.30
45643;DHT22;31358;46.008;11.144;2022-09-27T14:31:21;18.50;98.50
45643;DHT22;31358;46.008;11.144;2022-09-27T14:33:48;18.60;98.10
45643;DHT22;31358;46.008;11.144;2022-09-27T14:39:31;18.60;97.50
45643;DHT22;31358;46.008;11.144;2022-09-27T14:41:58;18.70;97.40
45643;DHT22;31358;46.008;11.144;2022-09-27T14:44:24;18.80;97.80
45643;DHT22;31358;46.008;11.144;2022-09-27T14:47:22;18.80;98.30
45643;DHT22;31358;46.008;11.144;2022-09-27T14:49:51;18.90;98.50
45643;DHT22;31358;46.008;11.144;2022-09-27T14:52:23;18.90;98.20
45643;DHT22;31358;46.008;11.144;2022-09-27T14:55:05;18.90;97.80
45643;DHT22;31358;46.008;11.144;2022-09-27T14:57:32;18.80;97.90
45643;DHT22;31358;46.008;11.144;2022-09-27T15:00:01;18.80;98.00
45643;DHT22;31358;46.008;11.144;2022-09-27T15:02:34;18.80;97.80
45643;DHT22;31358;46.008;11.144;2022-09-27T15:05:01;18.70;98.20
45643;DHT22;31358;46.008;11.144;2022-09-27T15:07:27;18.70;98.40
45643;DHT22;31358;46.008;11.144;2022-09-27T15:09:53;18.70;98.90
45643;DHT22;31358;46.008;11.144;2022-09-27T15:12:23;18.50;99.10
45643;DHT22;31358;46.008;11.144;2022-09-27T15:14:51;18.40;99.00
45643;DHT22;31358;46.008;11.144;2022-09-27T15:17:19;18.30;99.90
45643;DHT22;31358;46.008;11.144;2022-09-27T15:20:02;18.30;99.80
45643;DHT22;31358;46.008;11.144;2022-09-27T15:22:40;18.20;99.10
45643;DHT22;31358;46.008;11.144;2022-09-27T15:27:57;18.20;98.90
45643;DHT22;31358;46.008;11.144;2022-09-27T15:30:32;18.30;99.90
45643;DHT22;31358;46.008;11.144;2022-09-27T15:32:59;18.40;99.90
45643;DHT22;31358;46.008;11.144;2022-09-27T15:35:28;18.40;99.90
45643;DHT22;31358;46.008;11.144;2022-09-27T15:38:21;18.40;99.90
45643;DHT22;31358;46.008;11.144;2022-09-27T15:43:31;18.30;99.90
45643;DHT22;31358;46.008;11.144;2022-09-27T15:45:59;18.40;99.90
45643;DHT22;31358;46.008;11.144;2022-09-27T15:48:28;18.20;99.90
45643;DHT22;31358;46.008;11.144;2022-09-27T15:50:54;18.20;99.90
45643;DHT22;31358;46.008;11.144;2022-09-27T15:56:05;18.00;99.90
45643;DHT22;31358;46.008;11.144;2022-09-27T15:58:32;17.90;99.90
45643;DHT22;31358;46.008;11.144;2022-09-27T16:01:00;17.80;99.90
45643;DHT22;31358;46.008;11.144;2022-09-27T16:03:32;17.70;99.90
45643;DHT22;31358;46.008;11.144;2022-09-27T16:06:00;17.50;99.90
45643;DHT22;31358;46.008;11.144;2022-09-27T16:08:27;17.40;99.90
45643;DHT22;31358;46.008;11.144;2022-09-27T16:10:55;17.40;99.90
45643;DHT22;31358;46.008;11.144;2022-09-27T16:13:22;17.40;99.90
45643;DHT22;31358;46.008;11.144;2022-09-27T16:15:49;17.30;99.90
45643;DHT22;31358;46.008;11.144;2022-09-27T16:18:15;17.20;99.90
45643;DHT22;31358;46.008;11.144;2022-09-27T16:20:41;17.10;99.90
45643;DHT22;31358;46.008;11.144;2022-09-27T16:23:08;17.10;99.90
45643;DHT22;31358;46.008;11.144;2022-09-27T16:25:34;17.10;99.90
45643;DHT22;31358;46.008;11.144;2022-09-27T16:28:01;17.10;99.90
45643;DHT22;31358;46.008;11.144;2022-09-27T16:30:28;17.10;99.90
45643;DHT22;31358;46.008;11.144;2022-09-27T16:32:54;17.00;99.90
45643;DHT22;31358;46.008;11.144;2022-09-27T16:35:21;16.90;99.90
45643;DHT22;31358;46.008;11.144;2022-09-27T16:37:47;16.80;99.90
45643;DHT22;31358;46.008;11.144;2022-09-27T16:40:13;16.80;99.90
45643;DHT22;31358;46.008;11.144;2022-09-27T16:42:42;16.70;99.90
45643;DHT22;31358;46.008;11.144;2022-09-27T16:45:09;16.50;99.90
45643;DHT22;31358;46.008;11.144;2022-09-27T16:47:35;16.60;99.90
45643;DHT22;31358;46.008;11.144;2022-09-27T16:50:02;16.60;99.90
45643;DHT22;31358;46.008;11.144;2022-09-27T16:52:47;16.50;99.90
45643;DHT22;31358;46.008;11.144;2022-09-27T16:55:15;16.50;99.90
45643;DHT22;31358;46.008;11.144;2022-09-27T16:57:49;16.50;99.90
45643;DHT22;31358;46.008;11.144;2022-09-27T17:00:16;16.50;99.90
45643;DHT22;31358;46.008;11.144;2022-09-27T17:02:42;16.50;99.90
45643;DHT22;31358;46.008;11.144;2022-09-27T17:05:11;16.50;99.90
45643;DHT22;31358;46.008;11.144;2022-09-27T17:07:38;16.60;99.90
45643;DHT22;31358;46.008;11.144;2022-09-27T17:10:04;16.60;99.90
45643;DHT22;31358;46.008;11.144;2022-09-27T17:12:31;16.50;99.90
45643;DHT22;31358;46.008;11.144;2022-09-27T17:14:56;16.50;99.90
45643;DHT22;31358;46.008;11.144;2022-09-27T17:17:22;16.40;99.90
45643;DHT22;31358;46.008;11.144;2022-09-27T17:19:48;16.30;99.90
45643;DHT22;31358;46.008;11.144;2022-09-27T17:22:13;16.20;99.90
45643;DHT22;31358;46.008;11.144;2022-09-27T17:24:39;16.20;99.90
45643;DHT22;31358;46.008;11.144;2022-09-27T17:27:05;16.10;99.90
45643;DHT22;31358;46.008;11.144;2022-09-27T17:29:30;16.10;99.90
45643;DHT22;31358;46.008;11.144;2022-09-27T17:31:56;16.10;99.90
45643;DHT22;31358;46.008;11.144;2022-09-27T17:34:22;16.00;99.90
45643;DHT22;31358;46.008;11.144;2022-09-27T17:36:47;16.00;99.90
45643;DHT22;31358;46.008;11.144;2022-09-27T17:39:16;16.00;99.90
45643;DHT22;31358;46.008;11.144;2022-09-27T17:41:42;15.90;99.90
45643;DHT22;31358;46.008;11.144;2022-09-27T17:44:13;15.90;99.90
45643;DHT22;31358;46.008;11.144;2022-09-27T17:46:39;15.90;99.90
45643;DHT22;31358;46.008;11.144;2022-09-27T17:49:05;15.80;99.90
45643;DHT22;31358;46.008;11.144;2022-09-27T17:51:51;15.80;99.90
45643;DHT22;31358;46.008;11.144;2022-09-27T17:54:21;15.70;99.90
45643;DHT22;31358;46.008;11.144;2022-09-27T17:56:48;15.70;99.90
45643;DHT22;31358;46.008;11.144;2022-09-27T17:59:15;15.60;99.90
45643;DHT22;31358;46.008;11.144;2022-09-27T18:01:43;15.40;99.90
45643;DHT22;31358;46.008;11.144;2022-09-27T18:04:12;15.40;99.90
45643;DHT22;31358;46.008;11.144;2022-09-27T18:06:44;15.30;99.90
45643;DHT22;31358;46.008;11.144;2022-09-27T18:09:13;15.30;99.90
45643;DHT22;31358;46.008;11.144;2022-09-27T18:11:39;15.30;99.90
45643;DHT22;31358;46.008;11.144;2022-09-27T18:14:06;15.20;99.90
45643;DHT22;31358;46.008;11.144;2022-09-27T18:16:37;15.20;99.90
45643;DHT22;31358;46.008;11.144;2022-09-27T18:19:06;15.20;99.90
45643;DHT22;31358;46.008;11.144;2022-09-27T18:21:33;15.20;99.90
45643;DHT22;31358;46.008;11.144;2022-09-27T18:24:00;15.10;99.90
45643;DHT22;31358;46.008;11.144;2022-09-27T18:26:32;15.10;99.90
45643;DHT22;31358;46.008;11.144;2022-09-27T18:29:08;15.10;99.90
45643;DHT22;31358;46.008;11.144;2022-09-27T18:31:35;15.20;99.90
45643;DHT22;31358;46.008;11.144;2022-09-27T18:34:03;15.10;99.90
45643;DHT22;31358;46.008;11.144;2022-09-27T18:36:30;15.20;99.90
45643;DHT22;31358;46.008;11.144;2022-09-27T18:38:59;15.10;99.90
45643;DHT22;31358;46.008;11.144;2022-09-27T18:41:27;14.90;99.90
45643;DHT22;31358;46.008;11.144;2022-09-27T18:43:59;14.80;99.90
45643;DHT22;31358;46.008;11.144;2022-09-27T18:46:29;14.80;99.90
45643;DHT22;31358;46.008;11.144;2022-09-27T18:48:55;14.90;99.90
45643;DHT22;31358;46.008;11.144;2022-09-27T18:51:23;14.90;99.90
45643;DHT22;31358;46.008;11.144;2022-09-27T18:54:00;15.10;99.90
45643;DHT22;31358;46.008;11.144;2022-09-27T18:56:26;15.10;99.90
45643;DHT22;31358;46.008;11.144;2022-09-27T18:58:53;15.10;99.90
45643;DHT22;31358;46.008;11.144;2022-09-27T19:01:21;15.10;99.90